PWSweather.com
Personal Weather Stations
Station Observations
SEVANL01
SevillaES 41004

SevillaES 41004

Lat: 37.383633, Lon: -5.985787

Elevation: 19.685

Station Type: Davis Vantage Pro2

www.tiempoensevilla.es

High Low Average
Temperature 68.9°F20.5°C 56.7°F13.7°C 61.9°F16.6°C
Dew Point 59.3°F15.2°C 40.0°F4.4°C 49.0°F9.4°C
Winds 9.5 mph 15.3 kmh 0.3 mph 0.5 kmh 4.0 mph W6.4 kmh W
Wind Gusts 20.0 mph32.2 kmh 2.0 mph3.2 kmh 9.0 mph14.5 kmh
Humidity 93% 36% 65%
Pressure 30.04 in1017.3 mb 29.92 in1013.2 mb -
Precipitation 0.06 in1.5 mm - -
Hour Temp Dew Point Humidity Winds Wind Gusts Pressure Precip Precip Rate Daily Precip Total
12:00 AM 61.4°F16.3°C 49.9°F9.9°C 66% 1.1 mph W1.8 kmh W 4.0 mph6.4 kmh 30.01 in1016.3 mb 0.00 in0.0 mm 0.00 in0.0 mm 0.00 in0.0 mm
12:20 AM 61.4°F16.3°C 50.3°F10.2°C 67% 2.0 mph W3.2 kmh W 4.0 mph6.4 kmh 30.01 in1016.3 mb 0.00 in0.0 mm 0.00 in0.0 mm 0.00 in0.0 mm
12:40 AM 61.4°F16.3°C 50.7°F10.4°C 68% 1.0 mph W1.6 kmh W 6.0 mph9.7 kmh 30.01 in1016.3 mb 0.00 in0.0 mm 0.00 in0.0 mm 0.00 in0.0 mm
01:00 AM 61.6°F16.4°C 50.9°F10.5°C 68% 3.0 mph NW4.8 kmh NW 8.0 mph12.9 kmh 30.01 in1016.3 mb 0.00 in0.0 mm 0.00 in0.0 mm 0.00 in0.0 mm
01:20 AM 61.2°F16.2°C 50.9°F10.5°C 69% 2.0 mph WNW3.2 kmh WNW 7.0 mph11.3 kmh 30.00 in1015.9 mb 0.00 in0.0 mm 0.00 in0.0 mm 0.00 in0.0 mm
01:40 AM 61.1°F16.2°C 51.2°F10.7°C 70% 2.4 mph W3.9 kmh W 8.0 mph12.9 kmh 30.00 in1015.9 mb 0.00 in0.0 mm 0.00 in0.0 mm 0.00 in0.0 mm
02:00 AM 60.8°F16.0°C 51.0°F10.6°C 70% 3.0 mph WSW4.8 kmh WSW 6.0 mph9.7 kmh 29.99 in1015.6 mb 0.00 in0.0 mm 0.00 in0.0 mm 0.00 in0.0 mm
02:20 AM 60.8°F16.0°C 51.3°F10.7°C 71% 2.2 mph W3.5 kmh W 6.0 mph9.7 kmh 29.98 in1015.2 mb 0.00 in0.0 mm 0.00 in0.0 mm 0.00 in0.0 mm
02:40 AM 60.6°F15.9°C 51.5°F10.8°C 72% 1.9 mph WSW3.1 kmh WSW 4.0 mph6.4 kmh 29.98 in1015.2 mb 0.00 in0.0 mm 0.00 in0.0 mm 0.00 in0.0 mm
03:00 AM 60.1°F15.6°C 51.0°F10.6°C 72% 2.0 mph WSW3.2 kmh WSW 3.0 mph4.8 kmh 29.98 in1015.2 mb 0.00 in0.0 mm 0.00 in0.0 mm 0.00 in0.0 mm
03:20 AM 59.4°F15.2°C 51.1°F10.6°C 74% 2.0 mph SW3.2 kmh SW 3.0 mph4.8 kmh 29.98 in1015.2 mb 0.00 in0.0 mm 0.00 in0.0 mm 0.00 in0.0 mm
03:40 AM 59.0°F15.0°C 51.1°F10.6°C 75% 3.0 mph SW4.8 kmh SW 5.0 mph8.0 kmh 29.97 in1014.9 mb 0.00 in0.0 mm 0.00 in0.0 mm 0.00 in0.0 mm
04:00 AM 59.2°F15.1°C 51.6°F10.9°C 76% 2.1 mph SW3.4 kmh SW 4.0 mph6.4 kmh 29.96 in1014.6 mb 0.00 in0.0 mm 0.00 in0.0 mm 0.00 in0.0 mm
04:20 AM 58.8°F14.9°C 52.0°F11.1°C 78% 2.0 mph SW3.2 kmh SW 5.0 mph8.0 kmh 29.97 in1014.9 mb 0.00 in0.0 mm 0.00 in0.0 mm 0.00 in0.0 mm
04:40 AM 58.6°F14.8°C 51.8°F11.0°C 78% 2.0 mph SW3.2 kmh SW 4.0 mph6.4 kmh 29.97 in1014.9 mb 0.00 in0.0 mm 0.00 in0.0 mm 0.00 in0.0 mm
05:00 AM 58.2°F14.6°C 52.4°F11.3°C 81% 1.0 mph SW1.6 kmh SW 3.0 mph4.8 kmh 29.96 in1014.6 mb 0.00 in0.0 mm 0.00 in0.0 mm 0.00 in0.0 mm
05:20 AM 58.0°F14.4°C 52.9°F11.6°C 83% 1.2 mph SSW1.9 kmh SSW 5.0 mph8.0 kmh 29.96 in1014.6 mb 0.00 in0.0 mm 0.00 in0.0 mm 0.00 in0.0 mm
05:40 AM 57.6°F14.2°C 52.8°F11.6°C 84% 1.3 mph SW2.1 kmh SW 3.0 mph4.8 kmh 29.96 in1014.6 mb 0.02 in0.5 mm 0.06 in1.5 mm 0.02 in0.5 mm
06:00 AM 57.2°F14.0°C 53.4°F11.9°C 87% 1.0 mph S1.6 kmh S 4.0 mph6.4 kmh 29.96 in1014.6 mb 0.02 in0.5 mm 0.00 in0.0 mm 0.02 in0.5 mm
06:20 AM 56.9°F13.8°C 53.1°F11.7°C 87% 2.0 mph S3.2 kmh S 5.0 mph8.0 kmh 29.95 in1014.2 mb 0.02 in0.5 mm 0.00 in0.0 mm 0.02 in0.5 mm
06:40 AM 56.7°F13.7°C 52.9°F11.6°C 87% 3.0 mph SSW4.8 kmh SSW 5.0 mph8.0 kmh 29.95 in1014.2 mb 0.01 in0.3 mm 0.00 in0.0 mm 0.02 in0.5 mm
07:00 AM 56.8°F13.8°C 53.0°F11.7°C 87% 2.5 mph SW4.0 kmh SW 5.0 mph8.0 kmh 29.95 in1014.2 mb 0.00 in0.0 mm 0.00 in0.0 mm 0.02 in0.5 mm
07:20 AM 56.9°F13.8°C 53.1°F11.7°C 87% 3.0 mph SSW4.8 kmh SSW 7.0 mph11.3 kmh 29.95 in1014.2 mb 0.00 in0.0 mm 0.00 in0.0 mm 0.02 in0.5 mm
07:40 AM 57.1°F13.9°C 53.3°F11.8°C 87% 2.0 mph SW3.2 kmh SW 6.0 mph9.7 kmh 29.95 in1014.2 mb 0.00 in0.0 mm 0.00 in0.0 mm 0.02 in0.5 mm
08:00 AM 57.2°F14.0°C 53.7°F12.1°C 88% 3.0 mph SW4.8 kmh SW 6.0 mph9.7 kmh 29.94 in1013.9 mb 0.01 in0.3 mm 0.02 in0.5 mm 0.03 in0.8 mm
08:20 AM 57.3°F14.1°C 54.1°F12.3°C 89% 2.2 mph SSW3.5 kmh SSW 6.0 mph9.7 kmh 29.94 in1013.9 mb 0.01 in0.3 mm 0.00 in0.0 mm 0.03 in0.8 mm
08:40 AM 57.5°F14.2°C 54.3°F12.4°C 89% 3.9 mph SSW6.3 kmh SSW 8.0 mph12.9 kmh 29.94 in1013.9 mb 0.02 in0.5 mm 0.03 in0.8 mm 0.05 in1.3 mm
09:00 AM 57.8°F14.3°C 54.9°F12.7°C 90% 4.0 mph SW6.4 kmh SW 10.0 mph16.1 kmh 29.95 in1014.2 mb 0.02 in0.5 mm 0.00 in0.0 mm 0.05 in1.3 mm
09:20 AM 58.0°F14.4°C 55.1°F12.8°C 90% 3.0 mph SW4.8 kmh SW 9.0 mph14.5 kmh 29.95 in1014.2 mb 0.02 in0.5 mm 0.00 in0.0 mm 0.05 in1.3 mm
09:40 AM 58.2°F14.6°C 55.6°F13.1°C 91% 3.2 mph SW5.1 kmh SW 6.0 mph9.7 kmh 29.95 in1014.2 mb 0.00 in0.0 mm 0.00 in0.0 mm 0.05 in1.3 mm
10:00 AM 58.7°F14.8°C 56.4°F13.6°C 92% 2.0 mph SSW3.2 kmh SSW 5.0 mph8.0 kmh 29.95 in1014.2 mb 0.01 in0.3 mm 0.02 in0.5 mm 0.06 in1.5 mm
10:20 AM 59.3°F15.2°C 57.0°F13.9°C 92% 2.7 mph SW4.3 kmh SW 7.0 mph11.3 kmh 29.95 in1014.2 mb 0.01 in0.3 mm 0.00 in0.0 mm 0.06 in1.5 mm
10:40 AM 59.7°F15.4°C 57.4°F14.1°C 92% 2.5 mph SW4.0 kmh SW 7.0 mph11.3 kmh 29.95 in1014.2 mb 0.01 in0.3 mm 0.00 in0.0 mm 0.06 in1.5 mm
11:00 AM 60.0°F15.6°C 57.7°F14.3°C 92% 2.8 mph SW4.5 kmh SW 6.0 mph9.7 kmh 29.96 in1014.6 mb 0.01 in0.3 mm 0.00 in0.0 mm 0.06 in1.5 mm
11:20 AM 60.6°F15.9°C 58.6°F14.8°C 93% 0.7 mph WSW1.1 kmh WSW 2.0 mph3.2 kmh 29.96 in1014.6 mb 0.01 in0.3 mm 0.00 in0.0 mm 0.06 in1.5 mm
11:40 AM 61.3°F16.3°C 59.3°F15.2°C 93% 0.3 mph WNW0.5 kmh WNW 7.0 mph11.3 kmh 29.95 in1014.2 mb 0.01 in0.3 mm 0.00 in0.0 mm 0.06 in1.5 mm
12:00 PM 62.7°F17.1°C 58.1°F14.5°C 85% 2.3 mph NW3.7 kmh NW 8.0 mph12.9 kmh 29.95 in1014.2 mb 0.00 in0.0 mm 0.00 in0.0 mm 0.06 in1.5 mm
12:20 PM 64.3°F17.9°C 56.9°F13.8°C 77% 5.8 mph NW9.3 kmh NW 15.0 mph24.1 kmh 29.95 in1014.2 mb 0.00 in0.0 mm 0.00 in0.0 mm 0.06 in1.5 mm
12:40 PM 66.0°F18.9°C 54.7°F12.6°C 67% 6.6 mph NW10.6 kmh NW 20.0 mph32.2 kmh 29.95 in1014.2 mb 0.00 in0.0 mm 0.00 in0.0 mm 0.06 in1.5 mm
01:00 PM 66.7°F19.3°C 54.6°F12.6°C 65% 9.1 mph NW14.6 kmh NW 18.0 mph29.0 kmh 29.95 in1014.2 mb 0.00 in0.0 mm 0.00 in0.0 mm 0.06 in1.5 mm
01:20 PM 67.1°F19.5°C 53.2°F11.8°C 61% 9.5 mph NNW15.3 kmh NNW 18.0 mph29.0 kmh 29.94 in1013.9 mb 0.00 in0.0 mm 0.00 in0.0 mm 0.06 in1.5 mm
01:40 PM 67.7°F19.8°C 51.9°F11.1°C 57% 8.7 mph NW14.0 kmh NW 16.0 mph25.7 kmh 29.93 in1013.5 mb 0.00 in0.0 mm 0.00 in0.0 mm 0.06 in1.5 mm
02:00 PM 68.1°F20.1°C 49.8°F9.9°C 52% 6.2 mph NNW10.0 kmh NNW 14.0 mph22.5 kmh 29.93 in1013.5 mb 0.00 in0.0 mm 0.00 in0.0 mm 0.06 in1.5 mm
02:20 PM 67.9°F19.9°C 46.3°F7.9°C 46% 8.4 mph NW13.5 kmh NW 12.0 mph19.3 kmh 29.92 in1013.2 mb 0.00 in0.0 mm 0.00 in0.0 mm 0.06 in1.5 mm
02:40 PM 68.1°F20.1°C 44.7°F7.1°C 43% 6.0 mph NW9.7 kmh NW 14.0 mph22.5 kmh 29.92 in1013.2 mb 0.00 in0.0 mm 0.00 in0.0 mm 0.06 in1.5 mm
03:00 PM 68.1°F20.1°C 43.5°F6.4°C 41% 7.5 mph NW12.1 kmh NW 16.0 mph25.7 kmh 29.92 in1013.2 mb 0.00 in0.0 mm 0.00 in0.0 mm 0.06 in1.5 mm
03:20 PM 68.4°F20.2°C 43.8°F6.6°C 41% 7.4 mph N11.9 kmh N 14.0 mph22.5 kmh 29.93 in1013.5 mb 0.00 in0.0 mm 0.00 in0.0 mm 0.06 in1.5 mm
03:40 PM 68.5°F20.3°C 43.9°F6.6°C 41% 8.4 mph NNW13.5 kmh NNW 15.0 mph24.1 kmh 29.93 in1013.5 mb 0.00 in0.0 mm 0.00 in0.0 mm 0.06 in1.5 mm
04:00 PM 68.8°F20.4°C 43.5°F6.4°C 40% 7.9 mph NW12.7 kmh NW 14.0 mph22.5 kmh 29.93 in1013.5 mb 0.00 in0.0 mm 0.00 in0.0 mm 0.06 in1.5 mm
04:20 PM 68.5°F20.3°C 42.6°F5.9°C 39% 6.0 mph NW9.7 kmh NW 16.0 mph25.7 kmh 29.92 in1013.2 mb 0.00 in0.0 mm 0.00 in0.0 mm 0.06 in1.5 mm
04:40 PM 68.9°F20.5°C 42.9°F6.1°C 39% 5.0 mph NW8.0 kmh NW 12.0 mph19.3 kmh 29.93 in1013.5 mb 0.00 in0.0 mm 0.00 in0.0 mm 0.06 in1.5 mm
05:00 PM 68.5°F20.3°C 42.6°F5.9°C 39% 6.7 mph NNW10.8 kmh NNW 11.0 mph17.7 kmh 29.93 in1013.5 mb 0.00 in0.0 mm 0.00 in0.0 mm 0.06 in1.5 mm
05:20 PM 68.4°F20.2°C 40.4°F4.7°C 36% 5.9 mph NNW9.5 kmh NNW 13.0 mph20.9 kmh 29.93 in1013.5 mb 0.00 in0.0 mm 0.00 in0.0 mm 0.06 in1.5 mm
05:40 PM 68.0°F20.0°C 40.0°F4.4°C 36% 7.0 mph NNW11.3 kmh NNW 13.0 mph20.9 kmh 29.93 in1013.5 mb 0.00 in0.0 mm 0.00 in0.0 mm 0.06 in1.5 mm
06:00 PM 67.0°F19.4°C 40.5°F4.7°C 38% 7.1 mph NW11.4 kmh NW 12.0 mph19.3 kmh 29.94 in1013.9 mb 0.00 in0.0 mm 0.00 in0.0 mm 0.06 in1.5 mm
06:20 PM 65.9°F18.8°C 42.8°F6.0°C 43% 6.1 mph NNW9.8 kmh NNW 13.0 mph20.9 kmh 29.95 in1014.2 mb 0.00 in0.0 mm 0.00 in0.0 mm 0.06 in1.5 mm
06:40 PM 65.0°F18.3°C 42.5°F5.8°C 44% 8.9 mph NW14.3 kmh NW 15.0 mph24.1 kmh 29.96 in1014.6 mb 0.00 in0.0 mm 0.00 in0.0 mm 0.06 in1.5 mm
07:00 PM 64.2°F17.9°C 43.5°F6.4°C 47% 6.0 mph NW9.7 kmh NW 12.0 mph19.3 kmh 29.97 in1014.9 mb 0.00 in0.0 mm 0.00 in0.0 mm 0.06 in1.5 mm
07:20 PM 63.1°F17.3°C 41.4°F5.2°C 45% 7.7 mph NW12.4 kmh NW 15.0 mph24.1 kmh 29.98 in1015.2 mb 0.00 in0.0 mm 0.00 in0.0 mm 0.06 in1.5 mm
07:40 PM 62.5°F16.9°C 41.4°F5.2°C 46% 6.9 mph NW11.1 kmh NW 12.0 mph19.3 kmh 29.99 in1015.6 mb 0.00 in0.0 mm 0.00 in0.0 mm 0.06 in1.5 mm
08:00 PM 62.1°F16.7°C 41.1°F5.1°C 46% 4.8 mph NW7.7 kmh NW 13.0 mph20.9 kmh 30.00 in1015.9 mb 0.00 in0.0 mm 0.00 in0.0 mm 0.06 in1.5 mm
08:20 PM 61.7°F16.5°C 41.3°F5.2°C 47% 3.3 mph NW5.3 kmh NW 7.0 mph11.3 kmh 30.00 in1015.9 mb 0.00 in0.0 mm 0.00 in0.0 mm 0.06 in1.5 mm
08:40 PM 61.6°F16.4°C 41.7°F5.4°C 48% 2.7 mph NW4.3 kmh NW 8.0 mph12.9 kmh 30.00 in1015.9 mb 0.00 in0.0 mm 0.00 in0.0 mm 0.06 in1.5 mm
09:00 PM 61.7°F16.5°C 41.3°F5.2°C 47% 3.6 mph NW5.8 kmh NW 10.0 mph16.1 kmh 30.01 in1016.3 mb 0.00 in0.0 mm 0.00 in0.0 mm 0.06 in1.5 mm
09:20 PM 61.3°F16.3°C 42.0°F5.6°C 49% 3.1 mph WNW5.0 kmh WNW 10.0 mph16.1 kmh 30.01 in1016.3 mb 0.00 in0.0 mm 0.00 in0.0 mm 0.06 in1.5 mm
09:40 PM 61.1°F16.2°C 41.8°F5.4°C 49% 3.6 mph NW5.8 kmh NW 8.0 mph12.9 kmh 30.02 in1016.6 mb 0.00 in0.0 mm 0.00 in0.0 mm 0.06 in1.5 mm
10:00 PM 60.5°F15.8°C 42.3°F5.7°C 51% 2.6 mph WNW4.2 kmh WNW 8.0 mph12.9 kmh 30.02 in1016.6 mb 0.00 in0.0 mm 0.00 in0.0 mm 0.06 in1.5 mm
10:20 PM 59.9°F15.5°C 42.7°F5.9°C 53% 2.2 mph WNW3.5 kmh WNW 6.0 mph9.7 kmh 30.03 in1016.9 mb 0.00 in0.0 mm 0.00 in0.0 mm 0.06 in1.5 mm
10:40 PM 60.0°F15.6°C 42.3°F5.7°C 52% 3.8 mph NW6.1 kmh NW 9.0 mph14.5 kmh 30.04 in1017.3 mb 0.00 in0.0 mm 0.00 in0.0 mm 0.06 in1.5 mm
11:00 PM 59.5°F15.3°C 42.3°F5.7°C 53% 2.8 mph WNW4.5 kmh WNW 7.0 mph11.3 kmh 30.04 in1017.3 mb 0.00 in0.0 mm 0.00 in0.0 mm 0.06 in1.5 mm
11:20 PM 59.0°F15.0°C 42.4°F5.8°C 54% 3.0 mph NW4.8 kmh NW 7.0 mph11.3 kmh 30.04 in1017.3 mb 0.00 in0.0 mm 0.00 in0.0 mm 0.06 in1.5 mm
11:40 PM 58.8°F14.9°C 42.7°F5.9°C 55% 3.6 mph WNW5.8 kmh WNW 8.0 mph12.9 kmh 30.04 in1017.3 mb 0.00 in0.0 mm 0.00 in0.0 mm 0.06 in1.5 mm